createdAt,value
2023-07-18T00:02:00.211Z,139.07
2023-07-18T00:05:03.178Z,136.68
2023-07-18T00:08:06.381Z,136.00
2023-07-18T00:11:09.501Z,141.30
2023-07-18T00:14:12.433Z,122.43
2023-07-18T00:17:16.645Z,137.40
2023-07-18T00:20:20.531Z,136.95
2023-07-18T00:23:23.590Z,134.43
2023-07-18T00:26:26.503Z,141.10
2023-07-18T00:29:29.263Z,148.27
2023-07-18T00:32:32.412Z,131.18
2023-07-18T00:35:36.170Z,147.27
2023-07-18T00:38:41.506Z,129.10
2023-07-18T00:41:44.559Z,143.95
2023-07-18T00:44:50.527Z,122.72
2023-07-18T00:47:53.891Z,136.43
2023-07-18T00:50:56.835Z,122.80
2023-07-18T00:54:00.461Z,127.10
2023-07-18T00:57:03.702Z,120.03
2023-07-18T01:00:12.399Z,121.28
2023-07-18T01:03:17.534Z,114.15
2023-07-18T01:06:20.370Z,132.10
2023-07-18T01:09:23.601Z,118.75
2023-07-18T01:12:26.432Z,142.40
2023-07-18T01:15:34.417Z,114.40
2023-07-18T01:18:38.906Z,125.32
2023-07-18T01:21:43.632Z,98.55
2023-07-18T01:24:46.811Z,97.82
2023-07-18T01:27:51.463Z,98.72
2023-07-18T01:30:56.980Z,116.72
2023-07-18T01:33:59.824Z,184.90
2023-07-18T01:37:04.149Z,139.77
2023-07-18T01:40:14.276Z,124.15
2023-07-18T01:43:17.185Z,128.55
2023-07-18T01:46:20.258Z,152.65
2023-07-18T01:49:24.268Z,86.63
2023-07-18T01:52:28.789Z,125.55
2023-07-18T01:55:31.874Z,145.52
2023-07-18T01:58:36.635Z,126.05
2023-07-18T02:01:39.601Z,151.35
2023-07-18T02:04:42.842Z,147.40
2023-07-18T02:07:46.481Z,105.53
2023-07-18T02:10:49.834Z,137.77
2023-07-18T02:13:52.700Z,118.45
2023-07-18T02:16:55.793Z,92.10
2023-07-18T02:19:59.123Z,116.40
2023-07-18T02:23:02.303Z,120.55
2023-07-18T02:26:05.971Z,119.93
2023-07-18T02:29:08.977Z,127.85
2023-07-18T02:32:12.151Z,148.38
2023-07-18T02:35:20.264Z,126.45
2023-07-18T02:38:24.075Z,101.18
2023-07-18T02:41:27.783Z,101.97
2023-07-18T02:44:33.752Z,103.53
2023-07-18T02:47:36.900Z,112.75
2023-07-18T02:50:39.831Z,108.47
2023-07-18T02:53:42.954Z,111.25
2023-07-18T02:56:46.172Z,99.88
2023-07-18T02:59:49.137Z,116.75
2023-07-18T03:02:53.285Z,110.60
2023-07-18T03:05:56.672Z,116.50
2023-07-18T03:08:59.534Z,124.03
2023-07-18T03:12:05.462Z,117.07
2023-07-18T03:15:12.171Z,117.20
2023-07-18T03:18:15.486Z,119.30
2023-07-18T03:21:18.981Z,127.97
2023-07-18T03:24:22.256Z,129.88
2023-07-18T03:27:25.363Z,115.80
2023-07-18T03:30:28.222Z,123.57
2023-07-18T03:33:31.368Z,139.85
2023-07-18T03:36:36.560Z,130.45
2023-07-18T03:39:40.734Z,126.22
2023-07-18T03:42:44.727Z,122.75
2023-07-18T03:45:47.721Z,135.38
2023-07-18T03:48:52.894Z,144.38
2023-07-18T03:51:56.368Z,132.43
2023-07-18T03:54:59.420Z,120.05
2023-07-18T03:58:03.096Z,137.18
2023-07-18T04:01:12.124Z,136.63
2023-07-18T04:04:15.358Z,139.10
2023-07-18T04:07:19.363Z,134.52
2023-07-18T04:10:22.765Z,150.02
2023-07-18T04:13:28.831Z,198.68
2023-07-18T04:16:37.410Z,195.90
2023-07-18T04:19:42.553Z,180.77
2023-07-18T04:22:47.588Z,276.30
2023-07-18T04:25:59.935Z,336.83
2023-07-18T04:29:06.510Z,278.02
2023-07-18T04:32:12.782Z,285.42
2023-07-18T04:35:15.832Z,279.35
2023-07-18T04:38:22.667Z,272.63
2023-07-18T04:41:25.527Z,260.02
2023-07-18T04:44:29.746Z,309.20
2023-07-18T04:47:33.773Z,431.27
2023-07-18T04:50:38.318Z,310.13
2023-07-18T04:53:41.535Z,496.95
2023-07-18T04:56:46.220Z,515.13
2023-07-18T04:59:49.994Z,445.70
2023-07-18T05:02:53.019Z,607.03
2023-07-18T05:05:58.301Z,455.63
2023-07-18T05:09:01.947Z,499.38
2023-07-18T05:12:05.549Z,591.80
2023-07-18T05:15:09.456Z,487.02
2023-07-18T05:18:12.655Z,466.95
2023-07-18T05:21:16.031Z,539.47
2023-07-18T05:24:20.459Z,539.05
2023-07-18T05:27:23.644Z,621.53
2023-07-18T05:30:29.627Z,585.20
2023-07-18T05:33:34.173Z,582.08
2023-07-18T05:36:38.404Z,529.05
2023-07-18T05:39:43.808Z,559.60
2023-07-18T05:42:53.366Z,719.60
2023-07-18T05:45:56.950Z,686.65
2023-07-18T05:49:02.981Z,618.33
2023-07-18T05:52:06.561Z,704.20
2023-07-18T05:55:11.432Z,620.03
2023-07-18T05:58:15.001Z,704.67
2023-07-18T06:01:18.716Z,609.70
2023-07-18T06:04:22.225Z,650.67
2023-07-18T06:07:26.888Z,607.35
2023-07-18T06:10:30.317Z,681.03
2023-07-18T06:13:33.212Z,861.97
2023-07-18T06:16:36.204Z,760.65
2023-07-18T06:19:40.896Z,793.40
2023-07-18T06:22:46.376Z,639.08
2023-07-18T06:25:49.264Z,781.35
2023-07-18T06:28:55.148Z,761.70
2023-07-18T06:31:58.373Z,908.70
2023-07-18T06:35:16.679Z,891.95
2023-07-18T06:38:26.870Z,999.90
2023-07-18T06:41:30.075Z,999.90
2023-07-18T06:44:34.283Z,999.90
2023-07-18T06:47:38.203Z,999.90
2023-07-18T06:50:48.320Z,999.90
2023-07-18T06:53:53.688Z,999.90
2023-07-18T06:56:57.058Z,999.90
2023-07-18T07:00:01.415Z,999.90
2023-07-18T07:03:05.672Z,999.90
2023-07-18T07:06:12.979Z,999.90
2023-07-18T07:09:16.004Z,999.90
2023-07-18T07:12:34.355Z,999.90
2023-07-18T07:15:39.325Z,999.90
2023-07-18T07:18:42.493Z,999.90
2023-07-18T07:21:45.970Z,999.90
2023-07-18T07:24:49.229Z,999.90
2023-07-18T07:27:52.313Z,999.90
2023-07-18T07:30:55.524Z,999.90
2023-07-18T07:33:58.978Z,999.90
2023-07-18T07:37:02.258Z,999.90
2023-07-18T07:40:09.079Z,999.90
2023-07-18T07:43:14.235Z,999.90
2023-07-18T07:46:18.047Z,999.90
2023-07-18T07:49:22.780Z,999.90
2023-07-18T07:52:25.758Z,999.90
2023-07-18T07:55:29.593Z,999.90
2023-07-18T07:58:32.888Z,999.90
2023-07-18T08:01:35.801Z,999.90
2023-07-18T08:04:39.767Z,999.90
2023-07-18T08:07:44.690Z,999.90
2023-07-18T08:10:47.706Z,999.90
2023-07-18T08:13:55.372Z,999.90
2023-07-18T08:16:58.730Z,999.90
2023-07-18T08:20:02.359Z,999.90
2023-07-18T08:23:09.545Z,999.90
2023-07-18T08:26:12.756Z,999.90
2023-07-18T08:29:16.050Z,999.90
2023-07-18T08:32:19.064Z,999.90
2023-07-18T08:35:22.598Z,999.90
2023-07-18T08:38:25.592Z,999.90
2023-07-18T08:41:29.064Z,999.90
2023-07-18T08:44:33.082Z,999.90
2023-07-18T08:47:36.175Z,999.90
2023-07-18T08:50:41.512Z,999.90
2023-07-18T08:53:44.658Z,999.90
2023-07-18T08:56:47.827Z,999.90
2023-07-18T08:59:50.993Z,999.90
2023-07-18T09:02:54.072Z,999.90
2023-07-18T09:05:59.376Z,999.90
2023-07-18T09:09:02.550Z,999.90
2023-07-18T09:12:06.561Z,999.90
2023-07-18T09:15:20.314Z,999.90
2023-07-18T09:18:23.409Z,999.90
2023-07-18T09:21:26.659Z,999.90
2023-07-18T09:24:34.473Z,999.90
2023-07-18T09:27:38.081Z,999.90
2023-07-18T09:30:41.411Z,999.90
2023-07-18T09:33:45.366Z,999.90
2023-07-18T09:37:01.382Z,999.90
2023-07-18T09:40:04.651Z,999.90
2023-07-18T09:43:08.357Z,999.90
2023-07-18T09:46:15.695Z,999.90
2023-07-18T09:49:19.995Z,999.90
2023-07-18T09:52:28.095Z,999.90
2023-07-18T09:55:32.387Z,999.90
2023-07-18T09:58:39.609Z,999.90
2023-07-18T10:01:44.004Z,999.90
2023-07-18T10:04:47.864Z,999.90
2023-07-18T10:07:51.440Z,999.90
2023-07-18T10:11:09.526Z,999.90
2023-07-18T10:14:14.149Z,999.90
2023-07-18T10:17:43.814Z,999.90
2023-07-18T10:20:59.797Z,999.90
2023-07-18T10:24:29.929Z,999.90
2023-07-18T10:27:43.809Z,999.90
2023-07-18T10:30:47.990Z,999.90
2023-07-18T10:34:26.425Z,999.90
2023-07-18T10:37:32.290Z,999.90
2023-07-18T10:40:40.953Z,999.90
2023-07-18T10:43:49.426Z,999.90
2023-07-18T10:46:52.907Z,999.90
2023-07-18T10:49:56.875Z,999.90
2023-07-18T10:53:01.084Z,999.90
2023-07-18T10:56:10.149Z,999.90
2023-07-18T10:59:16.474Z,999.90
2023-07-18T11:02:23.305Z,999.90
2023-07-18T11:05:26.708Z,999.90
2023-07-18T11:08:31.635Z,999.90
2023-07-18T11:11:39.210Z,999.90
2023-07-18T11:14:42.812Z,999.90
2023-07-18T11:17:46.382Z,999.90
2023-07-18T11:20:49.506Z,999.90
2023-07-18T11:23:52.500Z,999.90
2023-07-18T11:27:19.604Z,999.90
2023-07-18T11:30:23.490Z,999.90
2023-07-18T11:33:30.536Z,999.90
2023-07-18T11:36:35.067Z,999.90
2023-07-18T11:39:38.029Z,999.90
2023-07-18T11:42:52.088Z,999.90
2023-07-18T11:45:58.302Z,999.90
2023-07-18T11:49:03.040Z,999.90
2023-07-18T11:52:07.771Z,999.90
2023-07-18T11:55:10.986Z,999.90
2023-07-18T11:58:13.951Z,999.90
2023-07-18T12:01:18.026Z,999.90
2023-07-18T12:04:21.335Z,999.90
2023-07-18T12:07:25.249Z,999.90
2023-07-18T12:10:30.372Z,999.90
2023-07-18T12:13:34.024Z,999.90
2023-07-18T12:16:39.581Z,999.90
2023-07-18T12:19:42.903Z,999.90
2023-07-18T12:22:46.692Z,999.90
2023-07-18T12:25:49.628Z,999.90
2023-07-18T12:28:56.560Z,999.90
2023-07-18T12:31:59.955Z,999.90
2023-07-18T12:35:07.954Z,999.90
2023-07-18T12:38:12.762Z,999.90
2023-07-18T12:41:16.151Z,999.90
2023-07-18T12:44:24.170Z,999.90
2023-07-18T12:47:30.370Z,999.90
2023-07-18T12:50:34.195Z,999.90
2023-07-18T12:53:37.173Z,999.90
2023-07-18T12:56:41.262Z,999.90
2023-07-18T12:59:48.449Z,999.90
2023-07-18T13:02:52.787Z,999.90
2023-07-18T13:05:56.691Z,999.90
2023-07-18T13:09:01.215Z,999.90
2023-07-18T13:12:07.783Z,999.90
2023-07-18T13:15:12.592Z,999.90
2023-07-18T13:18:15.511Z,999.90
2023-07-18T13:21:18.673Z,999.90
2023-07-18T13:24:22.125Z,999.90
2023-07-18T13:27:26.748Z,999.90
2023-07-18T13:30:30.615Z,999.90
2023-07-18T13:33:33.843Z,999.90
2023-07-18T13:39:42.818Z,999.90
2023-07-18T13:42:46.104Z,999.90
2023-07-18T13:45:50.778Z,999.90
2023-07-18T13:48:55.634Z,999.90
2023-07-18T13:51:59.658Z,999.90
2023-07-18T13:55:03.799Z,999.90
2023-07-18T13:58:07.229Z,999.90
2023-07-18T14:01:11.166Z,999.90
2023-07-18T14:04:18.244Z,999.90
2023-07-18T14:07:21.787Z,999.90
2023-07-18T14:10:25.844Z,999.90
2023-07-18T14:13:29.313Z,999.90
2023-07-18T14:16:32.780Z,999.90
2023-07-18T14:19:35.934Z,999.90
2023-07-18T14:22:41.717Z,999.90
2023-07-18T14:25:51.217Z,999.90
2023-07-18T14:28:56.479Z,999.90
2023-07-18T14:31:59.965Z,999.90
2023-07-18T14:35:03.077Z,999.90
2023-07-18T14:38:06.295Z,999.90
2023-07-18T14:41:16.930Z,999.90
2023-07-18T14:44:23.636Z,999.90
2023-07-18T14:47:31.209Z,999.90
2023-07-18T14:50:40.937Z,999.90
2023-07-18T14:53:45.916Z,999.90
2023-07-18T14:56:54.450Z,999.90
2023-07-18T14:59:59.298Z,999.90
2023-07-18T15:03:04.708Z,999.90
2023-07-18T15:06:09.016Z,999.90
2023-07-18T15:09:13.952Z,999.90
2023-07-18T15:12:17.573Z,999.90
2023-07-18T15:15:21.629Z,999.90
2023-07-18T15:18:28.089Z,999.90
2023-07-18T15:21:32.121Z,999.90
2023-07-18T15:24:36.290Z,999.90
2023-07-18T15:27:41.651Z,999.90
2023-07-18T15:30:44.943Z,999.90
2023-07-18T15:33:48.323Z,999.90
2023-07-18T15:36:51.717Z,999.90
2023-07-18T15:39:56.816Z,999.90
2023-07-18T15:43:00.457Z,999.90
2023-07-18T15:46:05.189Z,999.90
2023-07-18T15:49:08.113Z,999.90
2023-07-18T15:52:11.054Z,999.90
2023-07-18T15:55:17.502Z,999.90
2023-07-18T15:58:20.363Z,999.90
2023-07-18T16:01:25.133Z,999.90
2023-07-18T16:04:28.388Z,999.90
2023-07-18T16:07:31.534Z,999.90
2023-07-18T16:10:34.445Z,999.90
2023-07-18T16:13:37.821Z,999.90
2023-07-18T16:16:41.672Z,999.90
2023-07-18T16:19:45.739Z,999.90
2023-07-18T16:22:50.863Z,999.90
2023-07-18T16:25:54.326Z,999.90
2023-07-18T16:28:57.562Z,999.90
2023-07-18T16:32:01.588Z,999.90
2023-07-18T16:35:05.882Z,999.90
2023-07-18T16:38:09.122Z,999.90
2023-07-18T16:41:12.230Z,999.90
2023-07-18T16:44:18.671Z,999.90
2023-07-18T16:47:24.782Z,999.90
2023-07-18T16:50:28.049Z,999.90
2023-07-18T16:53:31.137Z,999.90
2023-07-18T16:56:36.530Z,999.90
2023-07-18T16:59:39.935Z,999.90
2023-07-18T17:02:43.125Z,999.90
2023-07-18T17:05:46.220Z,999.90
2023-07-18T17:08:49.102Z,999.90
2023-07-18T17:11:53.556Z,999.90
2023-07-18T17:14:58.551Z,999.90
2023-07-18T17:18:01.559Z,999.90
2023-07-18T17:21:06.381Z,999.90
2023-07-18T17:24:10.189Z,999.90
2023-07-18T17:27:14.803Z,999.90
2023-07-18T17:30:21.157Z,999.90
2023-07-18T17:33:27.012Z,999.90
2023-07-18T17:39:33.645Z,999.90
2023-07-18T17:42:36.599Z,999.90
2023-07-18T17:45:39.902Z,999.90
2023-07-18T17:48:43.462Z,999.90
2023-07-18T17:51:47.380Z,999.90
2023-07-18T17:54:51.249Z,999.90
2023-07-18T17:57:55.088Z,999.90
2023-07-18T18:00:58.216Z,999.90
2023-07-18T18:04:02.199Z,999.90
2023-07-18T18:07:06.173Z,999.90
2023-07-18T18:10:09.658Z,999.90
2023-07-18T18:13:14.601Z,999.90
2023-07-18T18:16:18.714Z,999.90
2023-07-18T18:19:23.788Z,999.90
2023-07-18T18:22:26.952Z,999.90
2023-07-18T18:25:30.488Z,999.90
2023-07-18T18:28:33.822Z,999.90
2023-07-18T18:31:37.158Z,999.90
2023-07-18T18:34:50.136Z,999.90
2023-07-18T18:38:04.211Z,999.90
2023-07-18T18:41:07.324Z,999.90
2023-07-18T18:44:10.691Z,999.90
2023-07-18T18:47:14.009Z,999.90
2023-07-18T18:50:22.311Z,999.90
2023-07-18T18:53:27.439Z,999.90
2023-07-18T18:56:30.836Z,999.90
2023-07-18T18:59:34.255Z,999.90
2023-07-18T19:02:39.337Z,999.90
2023-07-18T19:05:42.513Z,999.90
2023-07-18T19:08:47.986Z,999.90
2023-07-18T19:11:51.906Z,999.90
2023-07-18T19:14:58.034Z,999.90
2023-07-18T19:18:02.516Z,999.90
2023-07-18T19:21:07.062Z,999.90
2023-07-18T19:24:12.671Z,999.90
2023-07-18T19:27:15.977Z,999.90
2023-07-18T19:30:19.031Z,999.90
2023-07-18T19:33:21.883Z,999.90
2023-07-18T19:36:25.246Z,999.90
2023-07-18T19:39:28.309Z,999.90
2023-07-18T19:42:31.262Z,999.90
2023-07-18T19:45:34.314Z,999.90
2023-07-18T19:48:37.734Z,999.90
2023-07-18T19:51:41.557Z,999.90
2023-07-18T19:54:44.739Z,999.90
2023-07-18T19:57:49.457Z,999.90
2023-07-18T20:00:52.432Z,999.90
2023-07-18T20:03:59.873Z,999.90
2023-07-18T20:07:03.440Z,999.90
2023-07-18T20:10:07.144Z,999.90
2023-07-18T20:13:10.612Z,999.90
2023-07-18T20:16:13.555Z,999.90
2023-07-18T20:19:17.421Z,999.90
2023-07-18T20:22:24.159Z,999.90
2023-07-18T20:25:27.257Z,999.90
2023-07-18T20:28:31.404Z,999.90
2023-07-18T20:31:35.005Z,999.90
2023-07-18T20:34:39.443Z,999.90
2023-07-18T20:37:42.951Z,999.90
2023-07-18T20:40:46.617Z,999.90
2023-07-18T20:43:49.789Z,999.90
2023-07-18T20:46:53.071Z,999.90
2023-07-18T20:49:57.167Z,999.90
2023-07-18T20:53:00.266Z,999.90
2023-07-18T20:56:03.312Z,999.90
2023-07-18T20:59:07.224Z,999.90
2023-07-18T21:02:10.363Z,999.90
2023-07-18T21:05:13.417Z,999.90
2023-07-18T21:08:16.388Z,999.90
2023-07-18T21:11:20.228Z,999.90
2023-07-18T21:14:24.784Z,999.90
2023-07-18T21:17:27.828Z,999.90
2023-07-18T21:20:30.852Z,999.90
2023-07-18T21:23:34.003Z,999.90
2023-07-18T21:26:36.999Z,999.90
2023-07-18T21:29:39.983Z,999.90
2023-07-18T21:32:43.369Z,999.90
2023-07-18T21:35:47.173Z,999.90
2023-07-18T21:38:50.251Z,999.90
2023-07-18T21:41:53.447Z,999.90
2023-07-18T21:44:57.520Z,999.90
2023-07-18T21:48:00.693Z,999.90
2023-07-18T21:51:05.299Z,999.90
2023-07-18T21:54:11.453Z,999.90
2023-07-18T21:57:15.525Z,999.90
2023-07-18T22:00:19.804Z,999.90
2023-07-18T22:03:22.966Z,999.90
2023-07-18T22:06:26.500Z,999.90
2023-07-18T22:09:29.755Z,999.90
2023-07-18T22:12:32.892Z,999.90
2023-07-18T22:15:36.011Z,999.90
2023-07-18T22:18:39.441Z,999.90
2023-07-18T22:21:42.499Z,999.90
2023-07-18T22:24:45.471Z,999.90
2023-07-18T22:27:48.726Z,999.90
2023-07-18T22:30:52.301Z,999.90
2023-07-18T22:33:55.348Z,999.90
2023-07-18T22:36:58.484Z,999.90
2023-07-18T22:40:01.279Z,999.90
2023-07-18T22:43:05.682Z,999.90
2023-07-18T22:46:08.657Z,999.90
2023-07-18T22:49:11.948Z,999.90
2023-07-18T22:52:20.229Z,999.90
2023-07-18T22:55:23.458Z,999.90
2023-07-18T22:58:26.263Z,999.90
2023-07-18T23:01:29.503Z,999.90
2023-07-18T23:04:32.803Z,999.90
2023-07-18T23:07:36.925Z,999.90
2023-07-18T23:10:40.257Z,999.90
2023-07-18T23:13:43.016Z,999.90
2023-07-18T23:16:46.153Z,999.90
2023-07-18T23:19:50.238Z,999.90
2023-07-18T23:22:53.382Z,999.90
2023-07-18T23:25:56.387Z,999.90
2023-07-18T23:28:59.487Z,999.90
2023-07-18T23:32:02.586Z,999.90
2023-07-18T23:35:06.286Z,999.90
2023-07-18T23:38:09.591Z,999.90
2023-07-18T23:41:12.346Z,999.90
2023-07-18T23:44:15.586Z,999.90
2023-07-18T23:47:18.884Z,999.90
2023-07-18T23:50:22.098Z,999.90
2023-07-18T23:53:25.042Z,999.90
2023-07-18T23:56:28.067Z,999.90
2023-07-18T23:59:31.105Z,999.90
